Kezdőlap
METAR-TAF:

METAR-TAF

Repülőterek :

Bahreini nemzetközi repülőtér

Bahrein, Bahrein

földrajzi szélesség: 26-16N, földrajzi hosszúság: 050-39E, magasság: 2 m

Jelenlegi meteorológiai megfigyelések

A jelentés 10 perccel ezelõtt készült, 04:00 UTC
Délnyugati szél 6 kt, déli és nyugati között változik
Hőmérséklet 35°C
Páratartalom 42%
Légköri nyomás 998 hPa
Látótávolság 10 km, vagy több
felhőtlen 1500 m magasságban, és nincs gomolyfelhõ

METAR: OBBI 190400Z 22006KT 170V260 CAVOK 35/20 Q0998 NOSIG

Idő: 07:10 (04:10 UTC)

Előrejelzés

A jelentés 5 órával és 10 perccel ezelõtt készült, 23:00 UTC
Az előrejelzés 19-én 00 óra UTC és 20-én 06 óra UTC között érvényes
Északnyugati szél 8 kt
Látótávolság: 8000 m

TAF: OBBI 182300Z 1900/2006 32008KT 8000 NSC

Meteorológiai megfigyelések és előrejelzések több, mint 4000 repülőtéren (METAR és TAF jelentéseket).

A térképen piros és sárga pontok jelzik az elérhető meteorológiai állomásokat.

Mozgassa az egeret a pont fölött, hogy megjelenjen az állomás neve.

Azután kattintson az időjárási megfigyelések és előrejelzések megtekintéséhez.

A térkép megváltoztatása: kattintson a fekete keresztel jelölt zöld gombra ráközelítéshez, a vonallal jelölt zöld gombra távolításhoz, vagy a zöld nyilakra a szomszédos térképek eléréséhez.


METAR-TAF: